Time;durP1;ratioP1;P1;durP2;ratioP2;P2;SDS_P1;SDS_P2;PMS_P1;PMS_P2;Temp;Humidity;BMP_temperature;BMP_pressure;BME280_temperature;BME280_humidity;BME280_pressure;Samples;Min_cycle;Max_cycle;Signal;HPM_P1;HPM_P2
2022/08/31 00:05:37;;;;;;;2.47;0.90;;;16.40;99.90;;;;;;5032716;28;20045;-66
2022/08/31 00:08:03;;;;;;;1.88;1.00;;;16.40;99.90;;;;;;5033033;28;20395;-67
2022/08/31 00:10:28;;;;;;;2.30;1.00;;;16.30;99.90;;;;;;5032881;28;20033;-66
2022/08/31 00:12:54;;;;;;;2.67;1.10;;;16.30;99.90;;;;;;5034081;28;20064;-66
2022/08/31 00:15:23;;;;;;;1.52;1.00;;;16.40;99.90;;;;;;5032502;28;20051;-66
2022/08/31 00:17:49;;;;;;;3.47;0.82;;;16.30;99.90;;;;;;5034153;28;20060;-66
2022/08/31 00:20:17;;;;;;;3.13;0.95;;;16.30;99.90;;;;;;5016286;28;20137;-66
2022/08/31 00:22:42;;;;;;;3.28;1.05;;;16.30;99.90;;;;;;5032563;28;20052;-66
2022/08/31 00:25:08;;;;;;;3.40;1.00;;;16.30;99.90;;;;;;5032545;28;20034;-66
2022/08/31 00:27:34;;;;;;;3.40;1.25;;;16.30;99.90;;;;;;5032559;28;20068;-67
2022/08/31 00:30:00;;;;;;;1.30;1.00;;;16.30;99.90;;;;;;5034251;28;20041;-66
2022/08/31 00:32:25;;;;;;;3.20;0.98;;;16.30;99.90;;;;;;5033708;28;20042;-66
2022/08/31 00:34:51;;;;;;;1.88;1.10;;;16.30;99.90;;;;;;5032047;28;20040;-66
2022/08/31 00:37:18;;;;;;;4.93;1.20;;;16.30;99.90;;;;;;5032240;28;20049;-67
2022/08/31 00:39:43;;;;;;;1.88;1.20;;;16.30;99.90;;;;;;5032339;28;20042;-66
2022/08/31 00:42:11;;;;;;;1.50;0.82;;;16.30;99.90;;;;;;5032248;28;20419;-65
2022/08/31 00:44:37;;;;;;;1.95;0.90;;;16.30;99.90;;;;;;5031930;28;20045;-66
2022/08/31 00:47:03;;;;;;;3.50;0.90;;;16.30;99.90;;;;;;5033532;28;20042;-66
2022/08/31 00:49:31;;;;;;;1.60;1.00;;;16.30;99.90;;;;;;5033567;28;20052;-66
2022/08/31 00:52:04;;;;;;;3.35;1.02;;;16.30;99.90;;;;;;5033458;28;20127;-66
2022/08/31 00:54:36;;;;;;;2.30;0.98;;;16.20;99.90;;;;;;5033136;28;20223;-66
2022/08/31 00:57:03;;;;;;;;;;;16.20;99.90;;;;;;5032479;28;20050;-66
2022/08/31 00:59:28;;;;;;;1.00;0.73;;;16.20;99.90;;;;;;5033595;28;20012;-66
2022/08/31 01:01:54;;;;;;;1.25;0.82;;;16.20;99.90;;;;;;5031866;28;20488;-65
2022/08/31 01:04:20;;;;;;;3.97;0.90;;;16.20;99.90;;;;;;5031674;28;20046;-66
2022/08/31 01:06:48;;;;;;;1.38;0.80;;;16.10;99.90;;;;;;5033206;28;20092;-66
2022/08/31 01:09:13;;;;;;;2.42;0.68;;;16.10;99.90;;;;;;5031645;28;20056;-66
2022/08/31 01:11:41;;;;;;;2.60;1.10;;;16.10;99.90;;;;;;5031040;28;20120;-67
2022/08/31 01:14:07;;;;;;;1.02;0.68;;;16.00;99.90;;;;;;5031413;28;20079;-66
2022/08/31 01:16:47;;;;;;;4.10;1.00;;;16.00;99.90;;;;;;5032825;28;20064;-66
2022/08/31 01:19:23;;;;;;;3.38;1.00;;;16.00;99.90;;;;;;5031571;28;20033;-66
2022/08/31 01:22:01;;;;;;;1.10;0.80;;;16.00;99.90;;;;;;5031362;28;20507;-66
2022/08/31 01:24:27;;;;;;;1.65;0.70;;;16.00;99.90;;;;;;5031195;28;20041;-66
2022/08/31 01:26:54;;;;;;;0.65;0.60;;;15.90;99.90;;;;;;5031467;28;20182;-66
2022/08/31 01:29:20;;;;;;;2.13;0.70;;;15.90;99.90;;;;;;5032771;28;20045;-66
2022/08/31 01:31:46;;;;;;;1.58;0.80;;;15.80;99.90;;;;;;5014798;28;20037;-66
2022/08/31 01:34:13;;;;;;;1.20;0.70;;;15.80;99.90;;;;;;5031204;28;20100;-67
2022/08/31 01:36:41;;;;;;;3.53;0.90;;;15.80;99.90;;;;;;5032404;28;20052;-66
2022/08/31 01:39:08;;;;;;;0.90;0.80;;;15.80;99.90;;;;;;5031389;28;20033;-66
2022/08/31 01:41:34;;;;;;;2.58;0.90;;;15.80;99.90;;;;;;5031115;28;20080;-67
2022/08/31 01:44:00;;;;;;;2.25;0.70;;;15.70;99.90;;;;;;5030808;28;20045;-67
2022/08/31 01:46:26;;;;;;;0.65;0.60;;;15.70;99.90;;;;;;5031246;28;20043;-67
2022/08/31 01:48:52;;;;;;;2.08;0.80;;;15.70;99.90;;;;;;5032320;28;20034;-66
2022/08/31 01:51:20;;;;;;;1.55;0.90;;;15.70;99.90;;;;;;5030953;28;20092;-66
2022/08/31 01:53:48;;;;;;;3.95;0.77;;;15.70;99.90;;;;;;5032143;28;20415;-66
2022/08/31 01:56:22;;;;;;;3.45;0.80;;;15.60;99.90;;;;;;5030833;28;20045;-66
2022/08/31 01:58:48;;;;;;;0.98;0.60;;;15.60;99.90;;;;;;5032334;28;20068;-67
2022/08/31 02:01:13;;;;;;;0.90;0.80;;;15.60;99.90;;;;;;5032114;28;20065;-66
2022/08/31 02:03:39;;;;;;;0.80;0.73;;;15.50;99.90;;;;;;5031827;28;20124;-66
2022/08/31 02:06:09;;;;;;;2.60;0.80;;;15.50;99.90;;;;;;5031797;28;20073;-65
2022/08/31 02:08:36;;;;;;;4.47;0.80;;;15.50;99.90;;;;;;5030743;28;20391;-66
2022/08/31 02:11:03;;;;;;;1.33;0.82;;;15.50;99.90;;;;;;5030714;28;20038;-66
2022/08/31 02:13:28;;;;;;;1.92;0.80;;;15.50;99.90;;;;;;5030790;28;20048;-67
2022/08/31 02:15:54;;;;;;;1.83;0.82;;;15.40;99.90;;;;;;5030310;28;20041;-66
2022/08/31 02:18:19;;;;;;;1.52;0.65;;;15.40;99.90;;;;;;5014137;28;20053;-66
2022/08/31 02:20:45;;;;;;;1.70;0.80;;;15.40;99.90;;;;;;5030551;28;20120;-65
2022/08/31 02:23:10;;;;;;;1.88;0.70;;;15.30;99.90;;;;;;5029565;28;20044;-66
2022/08/31 02:25:36;;;;;;;2.38;0.73;;;15.30;99.90;;;;;;5030465;28;20037;-66
2022/08/31 02:28:02;;;;;;;1.52;0.80;;;15.20;99.90;;;;;;5030426;28;20128;-66
2022/08/31 02:30:28;;;;;;;1.08;0.60;;;15.20;99.90;;;;;;5031754;28;20384;-66
2022/08/31 02:32:54;;;;;;;0.85;0.70;;;15.20;99.90;;;;;;5030189;28;20044;-66
2022/08/31 02:35:19;;;;;;;0.70;0.60;;;15.20;99.90;;;;;;5030339;28;20088;-66
2022/08/31 02:37:45;;;;;;;4.03;0.70;;;15.20;99.90;;;;;;5030217;28;20092;-66
2022/08/31 02:40:11;;;;;;;0.73;0.63;;;15.20;99.90;;;;;;5030301;28;20069;-67
2022/08/31 02:42:37;;;;;;;1.20;0.70;;;15.20;99.90;;;;;;5030254;28;20044;-66
2022/08/31 02:45:05;;;;;;;2.10;0.75;;;15.10;99.90;;;;;;5029979;28;20037;-66
2022/08/31 02:47:30;;;;;;;0.80;0.73;;;15.00;99.90;;;;;;5031366;28;20549;-66
2022/08/31 02:49:56;;;;;;;1.15;0.85;;;15.00;99.90;;;;;;5030186;28;20041;-66
2022/08/31 02:52:22;;;;;;;0.80;0.60;;;15.00;99.90;;;;;;5030158;28;20041;-66
2022/08/31 02:54:48;;;;;;;2.38;0.75;;;15.00;99.90;;;;;;5029855;28;20099;-66
2022/08/31 02:57:14;;;;;;;2.72;0.65;;;14.90;99.90;;;;;;5013602;28;20408;-66
2022/08/31 02:59:39;;;;;;;1.15;0.70;;;14.90;99.90;;;;;;5030387;28;20124;-66
2022/08/31 03:02:05;;;;;;;1.02;0.65;;;14.90;99.90;;;;;;5031162;28;20037;-66
2022/08/31 03:04:30;;;;;;;0.63;0.50;;;14.70;99.90;;;;;;5029768;28;20049;-66
2022/08/31 03:06:56;;;;;;;0.65;0.65;;;14.70;99.90;;;;;;5030098;28;20083;-66
2022/08/31 03:09:22;;;;;;;0.60;0.60;;;14.70;99.90;;;;;;5029905;28;20045;-66
2022/08/31 03:11:47;;;;;;;0.88;0.80;;;14.60;99.90;;;;;;5030028;28;20034;-66
2022/08/31 03:14:13;;;;;;;1.40;0.93;;;14.60;99.90;;;;;;5029746;28;20041;-66
2022/08/31 03:16:39;;;;;;;1.05;0.70;;;14.50;99.90;;;;;;5031088;28;20053;-66
2022/08/31 03:19:06;;;;;;;0.60;0.60;;;14.50;99.90;;;;;;5030240;28;20072;-66
2022/08/31 03:21:32;;;;;;;0.80;0.80;;;14.40;99.90;;;;;;5031190;28;20037;-66
2022/08/31 03:23:58;;;;;;;3.40;0.90;;;14.40;99.90;;;;;;5013407;28;20133;-66
2022/08/31 03:26:23;;;;;;;8.90;0.90;;;14.30;99.90;;;;;;5029916;28;20503;-66
2022/08/31 03:28:49;;;;;;;0.80;0.80;;;14.30;99.90;;;;;;5029889;28;20403;-66
2022/08/31 03:31:14;;;;;;;1.33;0.90;;;14.30;99.90;;;;;;5029979;28;20511;-66
2022/08/31 03:33:40;;;;;;;2.75;0.70;;;14.30;99.90;;;;;;5030930;28;20042;-66
2022/08/31 03:36:06;;;;;;;1.95;0.82;;;14.20;99.90;;;;;;5034321;28;20496;-66
2022/08/31 03:38:32;;;;;;;2.08;0.80;;;14.20;99.90;;;;;;5033326;28;20102;-67
2022/08/31 03:40:58;;;;;;;0.70;0.70;;;14.20;99.90;;;;;;5033421;28;20069;-66
2022/08/31 03:43:23;;;;;;;1.08;0.93;;;14.20;99.90;;;;;;5033323;28;20083;-66
2022/08/31 03:45:50;;;;;;;1.45;1.20;;;14.10;99.90;;;;;;5034206;28;20487;-66
2022/08/31 03:48:15;;;;;;;1.02;0.82;;;14.10;99.90;;;;;;5033532;28;20463;-66
2022/08/31 03:50:42;;;;;;;1.63;0.85;;;14.10;99.90;;;;;;5033285;28;20124;-66
2022/08/31 03:53:08;;;;;;;0.80;0.80;;;14.10;99.90;;;;;;5033087;28;20084;-66
2022/08/31 03:55:37;;;;;;;0.82;0.80;;;14.00;99.90;;;;;;5033159;28;20037;-66
2022/08/31 03:58:04;;;;;;;0.90;0.90;;;14.00;99.90;;;;;;5033076;28;20037;-66
2022/08/31 04:00:30;;;;;;;1.38;0.90;;;14.00;99.90;;;;;;5033256;28;20538;-66
2022/08/31 04:02:58;;;;;;;1.15;1.02;;;13.90;99.90;;;;;;5033198;28;20033;-66
2022/08/31 04:05:25;;;;;;;2.70;1.08;;;13.90;99.90;;;;;;5016565;28;20041;-66
2022/08/31 04:07:51;;;;;;;4.75;1.10;;;13.90;99.90;;;;;;5032930;28;20087;-66
2022/08/31 04:10:17;;;;;;;2.30;0.85;;;13.80;99.90;;;;;;5034118;28;20124;-66
2022/08/31 04:12:42;;;;;;;1.13;1.02;;;13.80;99.90;;;;;;5034103;28;20379;-66
2022/08/31 04:15:09;;;;;;;2.10;0.90;;;13.80;99.90;;;;;;5033729;28;20136;-66
2022/08/31 04:17:35;;;;;;;3.60;1.10;;;13.80;99.90;;;;;;5032750;28;20053;-66
2022/08/31 04:20:00;;;;;;;1.58;1.20;;;13.80;99.90;;;;;;5032811;28;20444;-65
2022/08/31 04:22:26;;;;;;;1.88;1.00;;;13.80;99.90;;;;;;5033857;28;20099;-66
2022/08/31 04:24:51;;;;;;;4.90;1.20;;;13.70;99.90;;;;;;5015955;28;20121;-66
2022/08/31 04:27:17;;;;;;;1.23;1.15;;;13.70;99.90;;;;;;5032533;28;20038;-66
2022/08/31 04:29:42;;;;;;;2.70;1.20;;;13.80;99.90;;;;;;5033696;28;20041;-66
2022/08/31 04:32:08;;;;;;;2.75;1.17;;;13.70;99.90;;;;;;5030322;28;20670;-66
2022/08/31 04:34:34;;;;;;;2.67;1.33;;;13.70;99.90;;;;;;5013021;28;20123;-66
2022/08/31 04:36:59;;;;;;;1.48;1.23;;;13.80;99.90;;;;;;5030866;28;20049;-66
2022/08/31 04:39:25;;;;;;;2.65;1.30;;;13.70;99.90;;;;;;5030736;28;20044;-66
2022/08/31 04:41:50;;;;;;;1.48;1.23;;;13.70;99.90;;;;;;5015776;28;20044;-66
2022/08/31 04:44:16;;;;;;;2.38;1.33;;;13.60;99.90;;;;;;5032645;28;20407;-66
2022/08/31 04:46:42;;;;;;;1.90;1.20;;;13.70;99.90;;;;;;5032178;28;20049;-66
2022/08/31 04:49:09;;;;;;;1.38;1.20;;;13.60;99.90;;;;;;5032319;28;20191;-66
2022/08/31 04:51:37;;;;;;;1.90;1.30;;;13.50;99.90;;;;;;5032423;28;20075;-66
2022/08/31 04:54:08;;;;;;;1.45;1.27;;;13.60;99.90;;;;;;5033156;28;20026;-66
2022/08/31 04:56:41;;;;;;;2.58;1.08;;;13.50;99.90;;;;;;5032158;28;20049;-66
2022/08/31 04:59:08;;;;;;;;;;;13.50;99.90;;;;;;5032702;28;20053;-66
2022/08/31 05:01:37;;;;;;;1.55;1.40;;;13.50;99.90;;;;;;5033177;28;19921;-66
2022/08/31 05:04:04;;;;;;;2.55;1.45;;;13.50;99.90;;;;;;5033010;28;20038;-66
2022/08/31 05:06:31;;;;;;;1.65;1.27;;;13.50;99.90;;;;;;5033162;28;20041;-66
2022/08/31 05:09:00;;;;;;;2.88;1.30;;;13.50;99.90;;;;;;5031589;28;20044;-66
2022/08/31 05:11:27;;;;;;;1.40;1.30;;;13.50;99.90;;;;;;5032954;28;20476;-66
2022/08/31 05:13:55;;;;;;;1.80;1.20;;;13.50;99.90;;;;;;5031646;28;20041;-66
2022/08/31 05:16:20;;;;;;;1.75;1.40;;;13.50;99.90;;;;;;5032813;28;20033;-66
2022/08/31 05:18:48;;;;;;;1.83;1.27;;;13.50;99.90;;;;;;5032971;28;20037;-66
2022/08/31 05:21:16;;;;;;;4.70;1.65;;;13.50;99.90;;;;;;5032847;28;20154;-66
2022/08/31 05:23:44;;;;;;;1.38;1.17;;;13.50;99.90;;;;;;5031391;28;20041;-66
2022/08/31 05:26:17;;;;;;;3.47;1.50;;;13.50;99.90;;;;;;5031432;28;20037;-66
2022/08/31 05:28:43;;;;;;;1.73;1.23;;;13.60;99.90;;;;;;5014996;28;20041;-66
2022/08/31 05:31:08;;;;;;;1.38;1.20;;;13.70;99.90;;;;;;5032693;28;20071;-66
2022/08/31 05:33:34;;;;;;;1.63;1.40;;;13.60;99.90;;;;;;5031280;28;20052;-66
2022/08/31 05:36:01;;;;;;;3.22;1.27;;;13.60;99.90;;;;;;5032321;28;20037;-66
2022/08/31 05:38:26;;;;;;;3.78;1.88;;;13.70;99.90;;;;;;5032260;28;20172;-66
2022/08/31 05:40:54;;;;;;;1.73;1.25;;;13.70;99.90;;;;;;5031469;28;20462;-66
2022/08/31 05:43:20;;;;;;;3.78;1.55;;;13.70;99.90;;;;;;5032453;28;20048;-66
2022/08/31 05:45:46;;;;;;;1.77;1.52;;;13.70;99.90;;;;;;5032242;28;20044;-67
2022/08/31 05:48:12;;;;;;;6.60;1.67;;;13.80;99.90;;;;;;5032396;28;20045;-66
2022/08/31 05:50:37;;;;;;;2.97;1.70;;;13.80;99.90;;;;;;5031000;28;20128;-66
2022/08/31 05:53:03;;;;;;;1.92;1.50;;;13.80;99.90;;;;;;5032157;28;20503;-66
2022/08/31 05:55:30;;;;;;;1.77;1.55;;;13.80;99.90;;;;;;5030662;28;20041;-66
2022/08/31 05:57:55;;;;;;;6.68;1.40;;;13.70;99.90;;;;;;5032082;28;20056;-66
2022/08/31 06:00:22;;;;;;;2.50;1.55;;;13.90;99.90;;;;;;5032287;28;20029;-66
2022/08/31 06:02:47;;;;;;;2.95;1.40;;;13.90;99.90;;;;;;5030771;28;20064;-66
2022/08/31 06:05:13;;;;;;;1.95;1.48;;;13.90;99.90;;;;;;5031726;28;20436;-66
2022/08/31 06:07:38;;;;;;;3.58;1.55;;;14.00;99.90;;;;;;5031927;28;20084;-66
2022/08/31 06:10:04;;;;;;;1.92;1.35;;;14.10;99.90;;;;;;5014440;28;20049;-66
2022/08/31 06:12:31;;;;;;;2.75;1.50;;;14.10;99.90;;;;;;5030530;28;20095;-65
2022/08/31 06:14:56;;;;;;;4.93;1.38;;;14.20;99.90;;;;;;5030372;28;20052;-66
2022/08/31 06:17:23;;;;;;;2.70;1.40;;;14.30;99.90;;;;;;5030755;28;20046;-65
2022/08/31 06:19:50;;;;;;;2.33;1.50;;;14.20;99.90;;;;;;5031832;28;20041;-66
2022/08/31 06:22:16;;;;;;;3.38;1.67;;;14.40;99.90;;;;;;5030524;28;20033;-69
2022/08/31 06:24:41;;;;;;;1.65;1.40;;;14.40;99.90;;;;;;5031697;28;20037;-69
2022/08/31 06:27:09;;;;;;;2.42;1.45;;;14.50;99.90;;;;;;5031835;28;20076;-68
2022/08/31 06:29:34;;;;;;;4.65;1.88;;;14.60;99.90;;;;;;5030494;28;20082;-68
2022/08/31 06:32:06;;;;;;;2.35;1.40;;;14.50;99.90;;;;;;5013967;28;20535;-69
2022/08/31 06:34:33;;;;;;;4.38;1.42;;;14.50;99.90;;;;;;5030123;28;20491;-69
2022/08/31 06:36:59;;;;;;;3.50;1.63;;;14.60;99.90;;;;;;5030126;28;20052;-68
2022/08/31 06:39:25;;;;;;;3.55;1.73;;;14.60;99.90;;;;;;5030331;28;20037;-69
2022/08/31 06:41:54;;;;;;;2.88;1.52;;;14.60;99.90;;;;;;5030319;28;20038;-68
2022/08/31 06:44:22;;;;;;;4.05;1.90;;;14.60;99.90;;;;;;5031327;28;20048;-69
2022/08/31 06:46:49;;;;;;;3.88;1.45;;;14.70;99.90;;;;;;5030238;28;20526;-69
2022/08/31 06:49:15;;;;;;;5.72;1.50;;;14.70;99.90;;;;;;5030206;28;20056;-68
2022/08/31 06:51:42;;;;;;;4.25;1.30;;;14.80;99.90;;;;;;5030443;28;20069;-68
2022/08/31 06:54:10;;;;;;;1.95;1.65;;;14.90;99.90;;;;;;5029907;28;20049;-68
2022/08/31 06:56:36;;;;;;;1.65;1.30;;;14.90;99.90;;;;;;5031371;28;20523;-69
2022/08/31 06:59:03;;;;;;;2.58;1.50;;;14.90;99.90;;;;;;5030196;28;20033;-68
2022/08/31 07:01:30;;;;;;;3.25;1.45;;;15.00;99.90;;;;;;5031237;28;20059;-69
2022/08/31 07:03:57;;;;;;;3.92;1.63;;;15.00;99.90;;;;;;5029867;28;20041;-67
2022/08/31 07:06:29;;;;;;;2.25;1.38;;;15.10;99.90;;;;;;5031536;28;20041;-67
2022/08/31 07:09:00;;;;;;;2.30;1.45;;;15.20;99.90;;;;;;5029859;28;20037;-66
2022/08/31 07:11:33;;;;;;;4.50;1.60;;;15.20;99.90;;;;;;5035250;28;20095;-67
2022/08/31 07:14:00;;;;;;;2.22;1.60;;;15.20;99.90;;;;;;5034927;28;20132;-67
2022/08/31 07:16:27;;;;;;;5.90;1.80;;;15.30;99.90;;;;;;5033808;28;20034;-67
2022/08/31 07:18:54;;;;;;;3.67;1.50;;;15.30;99.90;;;;;;5034184;28;20037;-67
2022/08/31 07:21:24;;;;;;;6.85;1.50;;;15.40;99.90;;;;;;5035191;28;20045;-67
2022/08/31 07:23:51;;;;;;;2.67;1.40;;;15.40;99.90;;;;;;5033671;28;20125;-66
2022/08/31 07:26:27;;;;;;;4.20;1.50;;;15.50;99.90;;;;;;5035000;28;20045;-67
2022/08/31 07:28:54;;;;;;;4.40;1.23;;;15.60;99.90;;;;;;5033688;28;20526;-67
2022/08/31 07:31:22;;;;;;;2.70;1.58;;;15.70;99.90;;;;;;5033954;28;20184;-67
2022/08/31 07:33:50;;;;;;;4.40;1.60;;;15.60;99.90;;;;;;5034684;28;20163;-66
2022/08/31 07:36:17;;;;;;;2.85;1.55;;;15.70;99.90;;;;;;5033834;28;20080;-67
2022/08/31 07:44:14;;;;;;;5.28;1.70;;;15.90;99.90;;;;;;5033141;28;20049;-67
2022/08/31 07:46:40;;;;;;;3.20;1.45;;;15.90;99.90;;;;;;5033407;28;20095;-67
2022/08/31 07:49:12;;;;;;;2.80;1.52;;;16.00;99.90;;;;;;5034630;28;20554;-67
2022/08/31 07:51:42;;;;;;;1.65;1.30;;;16.00;99.90;;;;;;5034522;28;20037;-67
2022/08/31 07:54:09;;;;;;;3.00;1.30;;;16.10;99.90;;;;;;5034316;28;20046;-67
2022/08/31 07:56:36;;;;;;;4.18;1.55;;;16.20;99.90;;;;;;5033261;28;20147;-67
2022/08/31 07:59:06;;;;;;;2.97;1.42;;;16.30;99.90;;;;;;5033209;28;20037;-67
2022/08/31 08:01:33;;;;;;;2.42;1.08;;;16.40;99.90;;;;;;5033142;28;20042;-67
2022/08/31 08:04:01;;;;;;;4.82;1.27;;;16.50;99.90;;;;;;5016544;28;20133;-67
2022/08/31 08:06:28;;;;;;;3.65;1.45;;;16.60;99.90;;;;;;5034290;28;20462;-67
2022/08/31 08:08:54;;;;;;;7.10;1.25;;;16.60;99.90;;;;;;5032746;28;20038;-67
2022/08/31 08:11:23;;;;;;;3.92;1.10;;;16.80;99.90;;;;;;5034212;28;20501;-67
2022/08/31 08:13:49;;;;;;;1.95;1.10;;;16.80;99.90;;;;;;5032626;28;20132;-67
2022/08/31 08:16:14;;;;;;;5.47;1.00;;;17.00;99.90;;;;;;5034147;28;20465;-67
2022/08/31 08:18:40;;;;;;;1.65;1.00;;;16.90;99.90;;;;;;5033880;28;20605;-66
2022/08/31 08:21:06;;;;;;;1.27;1.02;;;17.00;99.90;;;;;;5031539;28;20037;-67
2022/08/31 08:23:32;;;;;;;9.77;1.17;;;17.10;99.90;;;;;;5032614;28;20069;-67
2022/08/31 08:26:00;;;;;;;4.43;1.20;;;17.20;99.90;;;;;;5033695;28;20558;-67
2022/08/31 08:28:29;;;;;;;3.22;0.95;;;17.30;99.90;;;;;;5033109;28;20431;-67
2022/08/31 08:30:59;;;;;;;3.65;1.23;;;17.20;99.90;;;;;;5032668;28;20077;-66
2022/08/31 08:33:30;;;;;;;8.60;1.48;;;17.20;99.90;;;;;;5032527;28;20051;-67
2022/08/31 08:36:01;;;;;;;1.52;0.93;;;17.30;99.90;;;;;;5032554;28;20045;-67
2022/08/31 08:38:32;;;;;;;1.83;1.00;;;17.40;99.90;;;;;;5032288;28;20407;-67
2022/08/31 08:41:03;;;;;;;4.43;1.42;;;17.50;99.90;;;;;;5033794;28;20034;-67
2022/08/31 08:43:35;;;;;;;3.20;0.90;;;17.60;99.90;;;;;;5032562;28;20041;-67
2022/08/31 08:46:03;;;;;;;6.60;1.27;;;17.60;99.90;;;;;;5033552;28;20179;-67
2022/08/31 08:48:35;;;;;;;3.70;1.10;;;17.70;99.90;;;;;;5015722;28;20052;-67
2022/08/31 08:51:03;;;;;;;5.20;1.15;;;17.70;99.90;;;;;;5033663;28;20090;-67
2022/08/31 08:53:30;;;;;;;5.68;1.27;;;17.80;99.90;;;;;;5033332;28;20056;-67
2022/08/31 08:55:56;;;;;;;7.75;0.90;;;17.90;99.90;;;;;;5033060;28;20127;-67
2022/08/31 08:58:23;;;;;;;5.63;1.05;;;18.00;99.90;;;;;;5033227;28;20144;-67
2022/08/31 09:00:52;;;;;;;2.78;1.08;;;18.00;99.90;;;;;;5031978;28;20083;-67
2022/08/31 09:03:29;;;;;;;5.65;1.23;;;18.20;99.90;;;;;;5031936;28;20116;-67
2022/08/31 09:06:15;;;;;;;1.42;1.00;;;18.20;99.90;;;;;;5031841;28;20052;-67
2022/08/31 09:09:16;;;;;;;1.20;0.68;;;18.20;99.90;;;;;;5015167;28;20081;-66
2022/08/31 09:11:53;;;;;;;2.15;1.00;;;18.30;99.90;;;;;;5031849;28;20041;-66
2022/08/31 09:14:50;;;;;;;4.47;0.85;;;18.40;99.90;;;;;;5031557;28;20125;-67
2022/08/31 09:17:54;;;;;;;3.20;0.90;;;18.50;99.90;;;;;;5033184;28;20147;-67
2022/08/31 09:20:21;;;;;;;4.00;1.02;;;18.50;99.90;;;;;;5033015;28;20049;-67
2022/08/31 09:22:51;;;;;;;5.50;0.90;;;18.60;99.90;;;;;;5032776;28;20116;-66
2022/08/31 09:25:32;;;;;;;3.15;1.20;;;18.60;99.90;;;;;;5031169;28;20037;-67
2022/08/31 09:28:01;;;;;;;2.15;0.90;;;18.60;99.90;;;;;;5031564;28;20056;-67
2022/08/31 09:30:45;;;;;;;7.72;1.33;;;18.60;99.90;;;;;;5031453;28;20045;-66
2022/08/31 09:33:25;;;;;;;4.93;1.02;;;18.70;99.90;;;;;;5031144;28;20049;-67
2022/08/31 09:36:13;;;;;;;1.27;0.73;;;18.70;99.90;;;;;;5032351;28;20086;-67
2022/08/31 09:38:40;;;;;;;1.45;0.85;;;18.90;99.90;;;;;;5031252;28;20034;-67
2022/08/31 09:41:29;;;;;;;3.08;0.75;;;19.00;99.90;;;;;;5014819;28;20164;-67
2022/08/31 09:44:22;;;;;;;3.55;1.00;;;18.90;99.90;;;;;;5024104;28;20065;-67
2022/08/31 09:46:52;;;;;;;6.25;0.98;;;18.90;99.90;;;;;;5032614;28;20065;-67
2022/08/31 09:49:20;;;;;;;10.68;1.20;;;19.00;99.90;;;;;;5032364;28;20566;-67
2022/08/31 09:51:47;;;;;;;6.95;1.10;;;18.90;99.60;;;;;;5030988;28;20076;-67
2022/08/31 09:57:05;;;;;;;3.53;0.93;;;19.00;99.90;;;;;;5030867;28;20045;-67
2022/08/31 09:59:45;;;;;;;11.27;1.55;;;19.00;99.90;;;;;;5030937;28;20033;-67
2022/08/31 10:02:21;;;;;;;3.10;0.85;;;19.20;99.90;;;;;;5030858;28;20051;-67
2022/08/31 10:04:50;;;;;;;2.95;1.00;;;19.30;99.90;;;;;;5030453;28;20052;-67
2022/08/31 10:07:36;;;;;;;2.03;0.88;;;19.20;99.80;;;;;;5031968;28;20041;-67
2022/08/31 10:10:16;;;;;;;8.73;1.20;;;19.20;99.90;;;;;;5031938;28;20161;-67
2022/08/31 10:12:52;;;;;;;5.05;1.00;;;19.20;99.70;;;;;;5030803;28;20480;-66
2022/08/31 10:15:32;;;;;;;2.17;0.98;;;19.30;99.70;;;;;;5013948;28;20034;-67
2022/08/31 10:18:16;;;;;;;8.35;1.10;;;19.30;99.70;;;;;;5031907;28;20484;-67
2022/08/31 10:21:04;;;;;;;5.07;1.15;;;19.40;99.80;;;;;;5014048;28;20041;-66
2022/08/31 10:23:53;;;;;;;6.45;1.17;;;19.30;99.90;;;;;;5030726;28;20385;-67
2022/08/31 10:26:35;;;;;;;7.47;1.20;;;19.40;99.70;;;;;;5031977;28;20041;-67
2022/08/31 10:29:17;;;;;;;4.88;0.98;;;19.50;99.90;;;;;;5031815;28;20159;-67
2022/08/31 10:31:46;;;;;;;7.57;1.00;;;19.40;99.90;;;;;;5031727;28;20108;-67
2022/08/31 10:37:14;;;;;;;2.85;0.80;;;19.70;99.70;;;;;;5031522;28;20136;-67
2022/08/31 10:39:54;;;;;;;2.78;0.90;;;19.70;99.30;;;;;;5014007;28;20052;-67
2022/08/31 10:42:30;;;;;;;2.15;1.10;;;19.70;99.10;;;;;;5031452;28;20053;-66
2022/08/31 10:45:06;;;;;;;1.98;0.70;;;19.70;98.40;;;;;;5030528;28;20080;-67
2022/08/31 10:47:39;;;;;;;1.77;0.95;;;19.80;98.80;;;;;;5014053;28;20073;-67
2022/08/31 10:50:05;;;;;;;1.25;0.80;;;19.90;98.50;;;;;;5031632;28;20046;-67
2022/08/31 10:52:52;;;;;;;2.58;1.38;;;19.90;98.40;;;;;;5030099;28;20094;-67
2022/08/31 10:55:45;;;;;;;1.55;0.52;;;20.00;98.20;;;;;;5030292;28;20127;-67
2022/08/31 10:58:45;;;;;;;10.63;1.08;;;20.00;97.80;;;;;;5031483;28;20103;-67
2022/08/31 11:01:21;;;;;;;3.42;0.85;;;20.00;97.70;;;;;;5013608;28;20045;-67
2022/08/31 11:04:07;;;;;;;3.20;0.90;;;20.10;98.20;;;;;;5013521;28;20120;-67
2022/08/31 11:06:41;;;;;;;4.63;0.85;;;20.20;97.70;;;;;;5013917;28;20038;-67
2022/08/31 11:09:39;;;;;;;1.77;0.82;;;20.20;98.10;;;;;;5031177;28;20083;-67
2022/08/31 11:12:17;;;;;;;1.63;0.65;;;20.20;96.40;;;;;;5014442;28;20050;-67
2022/08/31 11:15:08;;;;;;;5.10;0.90;;;20.20;97.10;;;;;;5030061;28;20045;-66
2022/08/31 11:17:46;;;;;;;3.40;0.75;;;20.20;97.10;;;;;;5029944;28;20079;-67
2022/08/31 11:20:41;;;;;;;5.22;0.90;;;20.40;97.70;;;;;;5029976;28;20042;-66
2022/08/31 11:23:12;;;;;;;2.67;1.08;;;20.40;97.40;;;;;;5031314;28;20048;-66
2022/08/31 11:26:09;;;;;;;5.32;1.00;;;20.50;97.50;;;;;;5013172;28;20040;-67
2022/08/31 11:29:00;;;;;;;6.40;1.13;;;20.40;96.60;;;;;;5030147;28;20443;-67
2022/08/31 11:31:29;;;;;;;3.05;0.90;;;20.50;96.70;;;;;;5029813;28;20045;-67
2022/08/31 11:34:06;;;;;;;3.28;0.90;;;20.60;96.30;;;;;;5029541;28;20038;-67
2022/08/31 11:36:43;;;;;;;3.40;0.70;;;20.50;95.90;;;;;;5029890;28;20045;-67
2022/08/31 11:39:08;;;;;;;1.20;0.70;;;20.60;95.80;;;;;;5031004;28;20285;-67
2022/08/31 11:41:45;;;;;;;2.05;1.00;;;20.50;96.10;;;;;;5029712;28;20048;-67
2022/08/31 11:44:30;;;;;;;2.70;0.77;;;20.60;96.90;;;;;;5029895;28;20395;-67
2022/08/31 11:47:24;;;;;;;4.35;0.80;;;20.60;97.00;;;;;;5030708;28;20041;-67
2022/08/31 11:49:54;;;;;;;2.70;0.90;;;20.80;96.60;;;;;;5029985;28;20084;-67
2022/08/31 11:52:20;;;;;;;1.38;0.73;;;20.80;96.40;;;;;;5029626;28;20046;-67
2022/08/31 11:54:47;;;;;;;1.52;0.70;;;20.70;96.70;;;;;;5030682;28;20125;-67
2022/08/31 11:57:19;;;;;;;1.25;0.95;;;20.70;96.60;;;;;;5033075;28;20593;-67
2022/08/31 11:59:49;;;;;;;3.57;0.93;;;20.70;96.20;;;;;;5034509;28;20037;-67
2022/08/31 12:02:24;;;;;;;3.58;0.98;;;20.80;96.00;;;;;;5034539;28;20280;-66
2022/08/31 12:04:53;;;;;;;3.13;0.95;;;20.80;95.90;;;;;;5033082;28;20388;-67
2022/08/31 12:07:27;;;;;;;3.40;0.85;;;20.90;96.20;;;;;;5016339;28;20136;-67
2022/08/31 12:10:13;;;;;;;2.33;1.05;;;20.90;95.40;;;;;;5034137;28;20076;-67
2022/08/31 12:13:06;;;;;;;7.85;1.00;;;20.90;95.50;;;;;;5034362;28;20048;-67
2022/08/31 12:16:02;;;;;;;3.47;1.08;;;20.80;95.50;;;;;;5033993;28;20065;-67
2022/08/31 12:18:53;;;;;;;1.48;0.75;;;20.90;94.80;;;;;;5032899;28;20045;-67
2022/08/31 12:24:40;;;;;;;2.80;0.80;;;21.20;94.90;;;;;;5032407;28;20045;-67
2022/08/31 12:27:15;;;;;;;2.08;0.85;;;21.10;94.50;;;;;;5034163;28;20045;-67
2022/08/31 12:29:42;;;;;;;4.40;1.00;;;21.10;94.70;;;;;;5032884;28;20037;-67
2022/08/31 12:32:26;;;;;;;1.85;1.00;;;21.30;94.80;;;;;;5032743;28;20377;-67
2022/08/31 12:35:08;;;;;;;3.55;0.80;;;21.30;94.10;;;;;;5033449;28;20037;-67
2022/08/31 12:37:36;;;;;;;4.20;0.93;;;21.20;94.20;;;;;;5015951;28;20042;-67
2022/08/31 12:40:22;;;;;;;2.33;0.80;;;21.30;94.70;;;;;;5032693;28;20037;-67
2022/08/31 12:42:56;;;;;;;4.05;0.80;;;21.30;94.70;;;;;;5033546;28;20059;-67
2022/08/31 12:46:03;;;;;;;3.78;0.65;;;21.40;94.40;;;;;;5033248;28;20422;-67
2022/08/31 12:48:35;;;;;;;1.63;0.80;;;21.50;93.90;;;;;;5032473;28;20400;-67
2022/08/31 12:51:33;;;;;;;1.95;0.70;;;21.50;94.40;;;;;;5032224;28;20057;-67
2022/08/31 12:54:16;;;;;;;1.55;0.70;;;21.50;93.30;;;;;;5031491;28;20195;-66
2022/08/31 12:56:55;;;;;;;1.75;0.80;;;21.60;94.10;;;;;;5015543;28;20068;-67
2022/08/31 12:59:46;;;;;;;2.60;0.70;;;21.60;93.60;;;;;;5033448;28;20090;-67
2022/08/31 13:02:13;;;;;;;6.82;0.98;;;21.60;93.30;;;;;;5032153;28;20049;-67
2022/08/31 13:04:45;;;;;;;2.65;0.68;;;21.60;93.00;;;;;;5033190;28;20060;-66
2022/08/31 13:07:21;;;;;;;2.35;0.70;;;21.70;93.00;;;;;;5031092;28;20049;-67
2022/08/31 13:10:11;;;;;;;2.58;0.80;;;21.70;92.80;;;;;;5031799;28;20042;-66
2022/08/31 13:12:37;;;;;;;2.67;0.80;;;21.60;92.60;;;;;;5031790;28;20034;-67
2022/08/31 13:15:07;;;;;;;1.45;0.77;;;21.60;92.50;;;;;;5031393;28;20129;-67
2022/08/31 13:17:37;;;;;;;3.53;0.70;;;21.60;93.20;;;;;;5031623;28;20052;-67
2022/08/31 13:20:05;;;;;;;1.52;0.70;;;21.70;92.60;;;;;;5015539;28;20098;-67
2022/08/31 13:22:40;;;;;;;1.70;0.70;;;21.80;92.20;;;;;;5031782;28;20095;-67
2022/08/31 13:25:35;;;;;;;2.20;0.73;;;21.70;92.20;;;;;;5031366;28;20037;-66